sensor_id;sensor_type;location;lat;lon;timestamp;P1;durP1;ratioP1;P2;durP2;ratioP2
72060;SDS011;59925;52.136;5.420;2023-04-15T00:01:54;7.68;;;3.50;;
72060;SDS011;59925;52.136;5.420;2023-04-15T00:04:20;7.50;;;3.63;;
72060;SDS011;59925;52.136;5.420;2023-04-15T00:06:50;7.63;;;3.40;;
72060;SDS011;59925;52.136;5.420;2023-04-15T00:09:20;7.77;;;3.57;;
72060;SDS011;59925;52.136;5.420;2023-04-15T00:11:46;7.93;;;3.72;;
72060;SDS011;59925;52.136;5.420;2023-04-15T00:14:13;7.10;;;3.72;;
72060;SDS011;59925;52.136;5.420;2023-04-15T00:16:39;9.32;;;3.88;;
72060;SDS011;59925;52.136;5.420;2023-04-15T00:19:06;7.50;;;3.25;;
72060;SDS011;59925;52.136;5.420;2023-04-15T00:21:33;8.13;;;3.47;;
72060;SDS011;59925;52.136;5.420;2023-04-15T00:23:59;11.82;;;3.95;;
72060;SDS011;59925;52.136;5.420;2023-04-15T00:26:26;7.13;;;3.67;;
72060;SDS011;59925;52.136;5.420;2023-04-15T00:28:53;7.22;;;3.40;;
72060;SDS011;59925;52.136;5.420;2023-04-15T00:31:20;8.35;;;3.63;;
72060;SDS011;59925;52.136;5.420;2023-04-15T00:33:46;6.60;;;3.60;;
72060;SDS011;59925;52.136;5.420;2023-04-15T00:36:13;6.47;;;3.00;;
72060;SDS011;59925;52.136;5.420;2023-04-15T00:38:40;7.07;;;4.20;;
72060;SDS011;59925;52.136;5.420;2023-04-15T00:41:07;9.07;;;4.03;;
72060;SDS011;59925;52.136;5.420;2023-04-15T00:43:35;7.10;;;3.55;;
72060;SDS011;59925;52.136;5.420;2023-04-15T00:46:03;7.53;;;3.60;;
72060;SDS011;59925;52.136;5.420;2023-04-15T00:48:30;7.32;;;3.90;;
72060;SDS011;59925;52.136;5.420;2023-04-15T00:50:57;6.70;;;3.22;;
72060;SDS011;59925;52.136;5.420;2023-04-15T00:53:24;6.22;;;4.15;;
72060;SDS011;59925;52.136;5.420;2023-04-15T00:55:50;7.35;;;3.58;;
72060;SDS011;59925;52.136;5.420;2023-04-15T00:58:17;5.13;;;3.50;;
72060;SDS011;59925;52.136;5.420;2023-04-15T01:00:44;5.35;;;3.53;;
72060;SDS011;59925;52.136;5.420;2023-04-15T01:03:11;6.35;;;3.70;;
72060;SDS011;59925;52.136;5.420;2023-04-15T01:05:38;7.57;;;3.80;;
72060;SDS011;59925;52.136;5.420;2023-04-15T01:08:04;8.85;;;3.97;;
72060;SDS011;59925;52.136;5.420;2023-04-15T01:10:31;7.43;;;3.53;;
72060;SDS011;59925;52.136;5.420;2023-04-15T01:12:58;8.82;;;4.18;;
72060;SDS011;59925;52.136;5.420;2023-04-15T01:15:25;6.43;;;4.20;;
72060;SDS011;59925;52.136;5.420;2023-04-15T01:17:51;8.77;;;3.60;;
72060;SDS011;59925;52.136;5.420;2023-04-15T01:20:18;6.75;;;4.07;;
72060;SDS011;59925;52.136;5.420;2023-04-15T01:22:45;8.67;;;3.33;;
72060;SDS011;59925;52.136;5.420;2023-04-15T01:25:14;12.02;;;3.90;;
72060;SDS011;59925;52.136;5.420;2023-04-15T01:27:44;8.15;;;4.00;;
72060;SDS011;59925;52.136;5.420;2023-04-15T01:30:10;7.13;;;3.90;;
72060;SDS011;59925;52.136;5.420;2023-04-15T01:32:37;8.65;;;4.05;;
72060;SDS011;59925;52.136;5.420;2023-04-15T01:35:04;7.20;;;3.70;;
72060;SDS011;59925;52.136;5.420;2023-04-15T01:37:30;6.70;;;3.58;;
72060;SDS011;59925;52.136;5.420;2023-04-15T01:39:57;7.22;;;3.65;;
72060;SDS011;59925;52.136;5.420;2023-04-15T01:42:24;7.63;;;3.67;;
72060;SDS011;59925;52.136;5.420;2023-04-15T01:44:53;7.25;;;3.90;;
72060;SDS011;59925;52.136;5.420;2023-04-15T01:47:19;6.10;;;3.20;;
72060;SDS011;59925;52.136;5.420;2023-04-15T01:49:46;8.23;;;3.53;;
72060;SDS011;59925;52.136;5.420;2023-04-15T01:52:12;5.65;;;3.75;;
72060;SDS011;59925;52.136;5.420;2023-04-15T01:54:39;6.55;;;4.03;;
72060;SDS011;59925;52.136;5.420;2023-04-15T01:57:06;7.90;;;3.80;;
72060;SDS011;59925;52.136;5.420;2023-04-15T01:59:32;7.93;;;3.60;;
72060;SDS011;59925;52.136;5.420;2023-04-15T02:01:58;7.45;;;4.00;;
72060;SDS011;59925;52.136;5.420;2023-04-15T02:04:25;8.52;;;3.80;;
72060;SDS011;59925;52.136;5.420;2023-04-15T02:06:53;7.68;;;3.70;;
72060;SDS011;59925;52.136;5.420;2023-04-15T02:09:19;6.25;;;3.83;;
72060;SDS011;59925;52.136;5.420;2023-04-15T02:11:46;5.80;;;3.50;;
72060;SDS011;59925;52.136;5.420;2023-04-15T02:14:12;6.63;;;3.58;;
72060;SDS011;59925;52.136;5.420;2023-04-15T02:16:39;7.53;;;3.50;;
72060;SDS011;59925;52.136;5.420;2023-04-15T02:19:06;6.93;;;3.40;;
72060;SDS011;59925;52.136;5.420;2023-04-15T02:21:33;6.95;;;3.50;;
72060;SDS011;59925;52.136;5.420;2023-04-15T02:24:00;7.27;;;3.77;;
72060;SDS011;59925;52.136;5.420;2023-04-15T02:26:27;7.95;;;3.70;;
72060;SDS011;59925;52.136;5.420;2023-04-15T02:28:57;8.15;;;4.07;;
72060;SDS011;59925;52.136;5.420;2023-04-15T02:31:24;7.75;;;3.83;;
72060;SDS011;59925;52.136;5.420;2023-04-15T02:33:51;7.22;;;3.00;;
72060;SDS011;59925;52.136;5.420;2023-04-15T02:36:17;8.03;;;3.10;;
72060;SDS011;59925;52.136;5.420;2023-04-15T02:38:44;6.70;;;3.10;;
72060;SDS011;59925;52.136;5.420;2023-04-15T02:41:10;5.90;;;3.55;;
72060;SDS011;59925;52.136;5.420;2023-04-15T02:43:37;7.72;;;3.30;;
72060;SDS011;59925;52.136;5.420;2023-04-15T02:46:05;6.75;;;3.40;;
72060;SDS011;59925;52.136;5.420;2023-04-15T02:48:32;6.87;;;3.37;;
72060;SDS011;59925;52.136;5.420;2023-04-15T02:51:11;8.93;;;3.78;;
72060;SDS011;59925;52.136;5.420;2023-04-15T02:53:39;7.07;;;3.38;;
72060;SDS011;59925;52.136;5.420;2023-04-15T02:56:06;6.88;;;3.30;;
72060;SDS011;59925;52.136;5.420;2023-04-15T02:58:34;8.05;;;3.28;;
72060;SDS011;59925;52.136;5.420;2023-04-15T03:01:01;9.23;;;3.63;;
72060;SDS011;59925;52.136;5.420;2023-04-15T03:03:28;5.22;;;3.00;;
72060;SDS011;59925;52.136;5.420;2023-04-15T03:05:54;5.35;;;3.13;;
72060;SDS011;59925;52.136;5.420;2023-04-15T03:08:21;6.13;;;3.13;;
72060;SDS011;59925;52.136;5.420;2023-04-15T03:10:48;7.82;;;3.72;;
72060;SDS011;59925;52.136;5.420;2023-04-15T03:13:14;7.23;;;3.33;;
72060;SDS011;59925;52.136;5.420;2023-04-15T03:15:40;6.57;;;3.53;;
72060;SDS011;59925;52.136;5.420;2023-04-15T03:18:07;4.70;;;2.95;;
72060;SDS011;59925;52.136;5.420;2023-04-15T03:20:33;7.43;;;3.65;;
72060;SDS011;59925;52.136;5.420;2023-04-15T03:23:01;8.48;;;3.80;;
72060;SDS011;59925;52.136;5.420;2023-04-15T03:25:27;4.50;;;3.17;;
72060;SDS011;59925;52.136;5.420;2023-04-15T03:27:54;7.45;;;3.38;;
72060;SDS011;59925;52.136;5.420;2023-04-15T03:30:20;7.22;;;3.75;;
72060;SDS011;59925;52.136;5.420;2023-04-15T03:32:47;6.18;;;3.20;;
72060;SDS011;59925;52.136;5.420;2023-04-15T03:35:14;4.78;;;3.17;;
72060;SDS011;59925;52.136;5.420;2023-04-15T03:37:40;7.93;;;4.00;;
72060;SDS011;59925;52.136;5.420;2023-04-15T03:40:07;7.88;;;3.53;;
72060;SDS011;59925;52.136;5.420;2023-04-15T03:42:34;8.02;;;3.35;;
72060;SDS011;59925;52.136;5.420;2023-04-15T03:45:01;7.88;;;3.53;;
72060;SDS011;59925;52.136;5.420;2023-04-15T03:47:28;6.95;;;3.40;;
72060;SDS011;59925;52.136;5.420;2023-04-15T03:49:54;7.00;;;3.60;;
72060;SDS011;59925;52.136;5.420;2023-04-15T03:52:21;6.38;;;3.45;;
72060;SDS011;59925;52.136;5.420;2023-04-15T03:54:48;7.20;;;3.97;;
72060;SDS011;59925;52.136;5.420;2023-04-15T03:57:14;7.88;;;3.67;;
72060;SDS011;59925;52.136;5.420;2023-04-15T03:59:41;6.63;;;3.78;;
72060;SDS011;59925;52.136;5.420;2023-04-15T04:02:07;5.13;;;3.27;;
72060;SDS011;59925;52.136;5.420;2023-04-15T04:04:34;5.65;;;3.55;;
72060;SDS011;59925;52.136;5.420;2023-04-15T04:07:00;6.65;;;3.50;;
72060;SDS011;59925;52.136;5.420;2023-04-15T04:09:27;7.53;;;3.45;;
72060;SDS011;59925;52.136;5.420;2023-04-15T04:11:53;5.88;;;3.30;;
72060;SDS011;59925;52.136;5.420;2023-04-15T04:14:21;6.73;;;3.50;;
72060;SDS011;59925;52.136;5.420;2023-04-15T04:16:54;6.25;;;3.60;;
72060;SDS011;59925;52.136;5.420;2023-04-15T04:19:21;6.85;;;3.85;;
72060;SDS011;59925;52.136;5.420;2023-04-15T04:21:48;7.18;;;3.60;;
72060;SDS011;59925;52.136;5.420;2023-04-15T04:24:14;7.22;;;3.90;;
72060;SDS011;59925;52.136;5.420;2023-04-15T04:26:41;7.60;;;3.57;;
72060;SDS011;59925;52.136;5.420;2023-04-15T04:29:07;6.25;;;3.65;;
72060;SDS011;59925;52.136;5.420;2023-04-15T04:31:34;6.25;;;3.70;;
72060;SDS011;59925;52.136;5.420;2023-04-15T04:34:00;6.05;;;3.88;;
72060;SDS011;59925;52.136;5.420;2023-04-15T04:36:27;8.98;;;3.28;;
72060;SDS011;59925;52.136;5.420;2023-04-15T04:38:53;7.73;;;3.30;;
72060;SDS011;59925;52.136;5.420;2023-04-15T04:41:20;6.90;;;3.58;;
72060;SDS011;59925;52.136;5.420;2023-04-15T04:43:47;9.38;;;3.72;;
72060;SDS011;59925;52.136;5.420;2023-04-15T04:46:13;7.80;;;3.63;;
72060;SDS011;59925;52.136;5.420;2023-04-15T04:48:40;7.28;;;3.75;;
72060;SDS011;59925;52.136;5.420;2023-04-15T04:51:06;8.40;;;4.10;;
72060;SDS011;59925;52.136;5.420;2023-04-15T04:53:33;9.40;;;3.75;;
72060;SDS011;59925;52.136;5.420;2023-04-15T04:55:59;9.05;;;4.28;;
72060;SDS011;59925;52.136;5.420;2023-04-15T04:58:26;9.85;;;3.60;;
72060;SDS011;59925;52.136;5.420;2023-04-15T05:00:53;7.47;;;3.78;;
72060;SDS011;59925;52.136;5.420;2023-04-15T05:03:20;5.63;;;3.53;;
72060;SDS011;59925;52.136;5.420;2023-04-15T05:05:47;7.35;;;3.78;;
72060;SDS011;59925;52.136;5.420;2023-04-15T05:08:14;7.82;;;3.88;;
72060;SDS011;59925;52.136;5.420;2023-04-15T05:10:41;7.10;;;3.83;;
72060;SDS011;59925;52.136;5.420;2023-04-15T05:13:08;7.10;;;4.07;;
72060;SDS011;59925;52.136;5.420;2023-04-15T05:15:34;8.40;;;4.47;;
72060;SDS011;59925;52.136;5.420;2023-04-15T05:18:02;6.75;;;3.72;;
72060;SDS011;59925;52.136;5.420;2023-04-15T05:20:28;5.78;;;3.92;;
72060;SDS011;59925;52.136;5.420;2023-04-15T05:22:55;8.80;;;3.80;;
72060;SDS011;59925;52.136;5.420;2023-04-15T05:25:21;8.00;;;4.63;;
72060;SDS011;59925;52.136;5.420;2023-04-15T05:27:48;10.07;;;3.87;;
72060;SDS011;59925;52.136;5.420;2023-04-15T05:30:14;9.65;;;3.92;;
72060;SDS011;59925;52.136;5.420;2023-04-15T05:32:41;9.18;;;4.57;;
72060;SDS011;59925;52.136;5.420;2023-04-15T05:35:07;10.25;;;4.80;;
72060;SDS011;59925;52.136;5.420;2023-04-15T05:37:34;6.97;;;3.85;;
72060;SDS011;59925;52.136;5.420;2023-04-15T05:40:00;7.43;;;4.17;;
72060;SDS011;59925;52.136;5.420;2023-04-15T05:42:27;10.63;;;4.75;;
72060;SDS011;59925;52.136;5.420;2023-04-15T05:44:53;9.13;;;4.82;;
72060;SDS011;59925;52.136;5.420;2023-04-15T05:47:20;9.68;;;4.68;;
72060;SDS011;59925;52.136;5.420;2023-04-15T05:49:46;8.25;;;4.10;;
72060;SDS011;59925;52.136;5.420;2023-04-15T05:52:13;9.40;;;4.53;;
72060;SDS011;59925;52.136;5.420;2023-04-15T05:54:39;8.38;;;4.45;;
72060;SDS011;59925;52.136;5.420;2023-04-15T05:57:06;8.77;;;4.40;;
72060;SDS011;59925;52.136;5.420;2023-04-15T05:59:33;6.75;;;4.10;;
72060;SDS011;59925;52.136;5.420;2023-04-15T06:01:59;9.07;;;4.18;;
72060;SDS011;59925;52.136;5.420;2023-04-15T06:04:26;7.90;;;4.47;;
72060;SDS011;59925;52.136;5.420;2023-04-15T06:06:53;8.82;;;4.68;;
72060;SDS011;59925;52.136;5.420;2023-04-15T06:09:19;9.40;;;4.25;;
72060;SDS011;59925;52.136;5.420;2023-04-15T06:11:46;8.50;;;4.72;;
72060;SDS011;59925;52.136;5.420;2023-04-15T06:14:12;8.73;;;4.55;;
72060;SDS011;59925;52.136;5.420;2023-04-15T06:16:38;9.60;;;4.80;;
72060;SDS011;59925;52.136;5.420;2023-04-15T06:19:05;8.25;;;5.15;;
72060;SDS011;59925;52.136;5.420;2023-04-15T06:21:31;10.93;;;5.68;;
72060;SDS011;59925;52.136;5.420;2023-04-15T06:23:58;11.50;;;5.38;;
72060;SDS011;59925;52.136;5.420;2023-04-15T06:26:29;14.43;;;6.55;;
72060;SDS011;59925;52.136;5.420;2023-04-15T06:28:56;14.57;;;7.03;;
72060;SDS011;59925;52.136;5.420;2023-04-15T06:31:22;16.08;;;7.53;;
72060;SDS011;59925;52.136;5.420;2023-04-15T06:33:49;16.08;;;7.13;;
72060;SDS011;59925;52.136;5.420;2023-04-15T06:36:15;17.67;;;7.70;;
72060;SDS011;59925;52.136;5.420;2023-04-15T06:38:42;11.68;;;6.32;;
72060;SDS011;59925;52.136;5.420;2023-04-15T06:41:08;9.10;;;5.17;;
72060;SDS011;59925;52.136;5.420;2023-04-15T06:43:35;11.63;;;5.85;;
72060;SDS011;59925;52.136;5.420;2023-04-15T06:46:01;9.88;;;5.60;;
72060;SDS011;59925;52.136;5.420;2023-04-15T06:48:28;10.60;;;4.97;;
72060;SDS011;59925;52.136;5.420;2023-04-15T06:50:54;8.98;;;5.38;;
72060;SDS011;59925;52.136;5.420;2023-04-15T06:53:21;9.20;;;4.90;;
72060;SDS011;59925;52.136;5.420;2023-04-15T06:55:48;8.90;;;4.97;;
72060;SDS011;59925;52.136;5.420;2023-04-15T06:58:14;8.18;;;5.03;;
72060;SDS011;59925;52.136;5.420;2023-04-15T07:00:41;10.07;;;5.20;;
72060;SDS011;59925;52.136;5.420;2023-04-15T07:03:07;10.75;;;5.10;;
72060;SDS011;59925;52.136;5.420;2023-04-15T07:05:36;9.47;;;5.37;;
72060;SDS011;59925;52.136;5.420;2023-04-15T07:08:03;7.75;;;5.00;;
72060;SDS011;59925;52.136;5.420;2023-04-15T07:10:30;9.10;;;5.13;;
72060;SDS011;59925;52.136;5.420;2023-04-15T07:12:56;9.45;;;5.88;;
72060;SDS011;59925;52.136;5.420;2023-04-15T07:15:23;8.52;;;5.35;;
72060;SDS011;59925;52.136;5.420;2023-04-15T07:17:50;7.57;;;4.73;;
72060;SDS011;59925;52.136;5.420;2023-04-15T07:20:16;8.82;;;5.25;;
72060;SDS011;59925;52.136;5.420;2023-04-15T07:22:43;7.72;;;4.80;;
72060;SDS011;59925;52.136;5.420;2023-04-15T07:25:09;8.18;;;4.90;;
72060;SDS011;59925;52.136;5.420;2023-04-15T07:27:36;9.60;;;5.32;;
72060;SDS011;59925;52.136;5.420;2023-04-15T07:30:02;8.30;;;5.60;;
72060;SDS011;59925;52.136;5.420;2023-04-15T07:32:29;8.05;;;5.38;;
72060;SDS011;59925;52.136;5.420;2023-04-15T07:34:56;8.98;;;5.47;;
72060;SDS011;59925;52.136;5.420;2023-04-15T07:37:22;10.60;;;5.68;;
72060;SDS011;59925;52.136;5.420;2023-04-15T07:39:49;7.00;;;5.03;;
72060;SDS011;59925;52.136;5.420;2023-04-15T07:42:16;8.97;;;4.60;;
72060;SDS011;59925;52.136;5.420;2023-04-15T07:44:42;7.80;;;4.93;;
72060;SDS011;59925;52.136;5.420;2023-04-15T07:47:08;7.75;;;4.82;;
72060;SDS011;59925;52.136;5.420;2023-04-15T07:49:35;8.40;;;4.75;;
72060;SDS011;59925;52.136;5.420;2023-04-15T07:52:02;6.97;;;4.43;;
72060;SDS011;59925;52.136;5.420;2023-04-15T07:54:29;6.83;;;4.30;;
72060;SDS011;59925;52.136;5.420;2023-04-15T07:56:55;8.35;;;4.07;;
72060;SDS011;59925;52.136;5.420;2023-04-15T07:59:22;5.65;;;3.70;;
72060;SDS011;59925;52.136;5.420;2023-04-15T08:01:48;6.53;;;3.50;;
72060;SDS011;59925;52.136;5.420;2023-04-15T08:04:15;6.15;;;2.92;;
72060;SDS011;59925;52.136;5.420;2023-04-15T08:06:42;8.80;;;3.50;;
72060;SDS011;59925;52.136;5.420;2023-04-15T08:09:09;6.25;;;3.40;;
72060;SDS011;59925;52.136;5.420;2023-04-15T08:11:36;5.88;;;3.63;;
72060;SDS011;59925;52.136;5.420;2023-04-15T08:14:02;6.43;;;3.38;;
72060;SDS011;59925;52.136;5.420;2023-04-15T08:16:29;7.22;;;3.70;;
72060;SDS011;59925;52.136;5.420;2023-04-15T08:18:55;5.97;;;3.43;;
72060;SDS011;59925;52.136;5.420;2023-04-15T08:21:23;4.88;;;3.05;;
72060;SDS011;59925;52.136;5.420;2023-04-15T08:23:50;4.90;;;2.97;;
72060;SDS011;59925;52.136;5.420;2023-04-15T08:26:18;6.55;;;3.65;;
72060;SDS011;59925;52.136;5.420;2023-04-15T08:28:46;4.90;;;3.10;;
72060;SDS011;59925;52.136;5.420;2023-04-15T08:31:15;3.73;;;2.87;;
72060;SDS011;59925;52.136;5.420;2023-04-15T08:33:43;4.68;;;2.55;;
72060;SDS011;59925;52.136;5.420;2023-04-15T08:36:09;4.30;;;2.90;;
72060;SDS011;59925;52.136;5.420;2023-04-15T08:38:36;5.13;;;2.72;;
72060;SDS011;59925;52.136;5.420;2023-04-15T08:41:03;6.03;;;2.58;;
72060;SDS011;59925;52.136;5.420;2023-04-15T08:43:38;3.77;;;2.50;;
72060;SDS011;59925;52.136;5.420;2023-04-15T08:46:12;4.70;;;2.80;;
72060;SDS011;59925;52.136;5.420;2023-04-15T08:48:39;5.07;;;2.58;;
72060;SDS011;59925;52.136;5.420;2023-04-15T08:51:07;5.32;;;2.85;;
72060;SDS011;59925;52.136;5.420;2023-04-15T08:53:34;4.32;;;2.97;;
72060;SDS011;59925;52.136;5.420;2023-04-15T08:56:02;5.33;;;3.07;;
72060;SDS011;59925;52.136;5.420;2023-04-15T08:58:30;3.95;;;2.65;;
72060;SDS011;59925;52.136;5.420;2023-04-15T09:00:57;5.40;;;3.10;;
72060;SDS011;59925;52.136;5.420;2023-04-15T09:03:24;7.25;;;3.50;;
72060;SDS011;59925;52.136;5.420;2023-04-15T09:05:51;5.55;;;3.28;;
72060;SDS011;59925;52.136;5.420;2023-04-15T09:08:18;6.07;;;3.23;;
72060;SDS011;59925;52.136;5.420;2023-04-15T09:10:45;4.22;;;3.20;;
72060;SDS011;59925;52.136;5.420;2023-04-15T09:13:11;4.13;;;2.50;;
72060;SDS011;59925;52.136;5.420;2023-04-15T09:15:38;6.32;;;2.75;;
72060;SDS011;59925;52.136;5.420;2023-04-15T09:18:05;4.35;;;2.55;;
72060;SDS011;59925;52.136;5.420;2023-04-15T09:20:41;3.90;;;2.43;;
72060;SDS011;59925;52.136;5.420;2023-04-15T09:23:11;3.75;;;2.10;;
72060;SDS011;59925;52.136;5.420;2023-04-15T09:25:40;4.40;;;2.38;;
72060;SDS011;59925;52.136;5.420;2023-04-15T09:28:10;3.00;;;1.92;;
72060;SDS011;59925;52.136;5.420;2023-04-15T09:30:36;3.83;;;2.50;;
72060;SDS011;59925;52.136;5.420;2023-04-15T09:33:03;4.30;;;2.30;;
72060;SDS011;59925;52.136;5.420;2023-04-15T09:35:34;3.50;;;2.03;;
72060;SDS011;59925;52.136;5.420;2023-04-15T09:38:04;3.97;;;2.15;;
72060;SDS011;59925;52.136;5.420;2023-04-15T09:40:36;4.07;;;2.22;;
72060;SDS011;59925;52.136;5.420;2023-04-15T09:43:07;3.10;;;1.52;;
72060;SDS011;59925;52.136;5.420;2023-04-15T09:45:38;4.53;;;2.03;;
72060;SDS011;59925;52.136;5.420;2023-04-15T09:50:42;4.88;;;2.47;;
72060;SDS011;59925;52.136;5.420;2023-04-15T09:53:09;4.90;;;2.72;;
72060;SDS011;59925;52.136;5.420;2023-04-15T09:55:37;5.22;;;2.55;;
72060;SDS011;59925;52.136;5.420;2023-04-15T09:58:37;3.93;;;1.83;;
72060;SDS011;59925;52.136;5.420;2023-04-15T10:00:59;3.80;;;1.83;;
72060;SDS011;59925;52.136;5.420;2023-04-15T10:03:27;4.55;;;2.08;;
72060;SDS011;59925;52.136;5.420;2023-04-15T10:05:57;2.92;;;2.00;;
72060;SDS011;59925;52.136;5.420;2023-04-15T10:08:29;6.75;;;3.00;;
72060;SDS011;59925;52.136;5.420;2023-04-15T10:10:58;5.97;;;3.00;;
72060;SDS011;59925;52.136;5.420;2023-04-15T10:13:28;4.28;;;2.10;;
72060;SDS011;59925;52.136;5.420;2023-04-15T10:15:59;3.75;;;1.60;;
72060;SDS011;59925;52.136;5.420;2023-04-15T10:18:33;2.28;;;1.38;;
72060;SDS011;59925;52.136;5.420;2023-04-15T10:21:01;2.92;;;1.70;;
72060;SDS011;59925;52.136;5.420;2023-04-15T10:23:27;2.87;;;1.60;;
72060;SDS011;59925;52.136;5.420;2023-04-15T10:25:54;2.42;;;1.60;;
72060;SDS011;59925;52.136;5.420;2023-04-15T10:28:21;4.18;;;1.77;;
72060;SDS011;59925;52.136;5.420;2023-04-15T10:30:48;3.67;;;1.52;;
72060;SDS011;59925;52.136;5.420;2023-04-15T10:33:19;2.33;;;1.70;;
72060;SDS011;59925;52.136;5.420;2023-04-15T10:35:47;6.03;;;2.10;;
72060;SDS011;59925;52.136;5.420;2023-04-15T10:38:50;5.78;;;1.83;;
72060;SDS011;59925;52.136;5.420;2023-04-15T10:41:31;2.53;;;1.70;;
72060;SDS011;59925;52.136;5.420;2023-04-15T10:44:00;2.95;;;1.85;;
72060;SDS011;59925;52.136;5.420;2023-04-15T10:46:41;2.60;;;1.75;;
72060;SDS011;59925;52.136;5.420;2023-04-15T10:49:12;3.63;;;1.90;;
72060;SDS011;59925;52.136;5.420;2023-04-15T10:51:41;3.70;;;1.65;;
72060;SDS011;59925;52.136;5.420;2023-04-15T10:54:13;2.40;;;1.65;;
72060;SDS011;59925;52.136;5.420;2023-04-15T10:56:41;4.32;;;1.50;;
72060;SDS011;59925;52.136;5.420;2023-04-15T10:59:08;3.20;;;1.75;;
72060;SDS011;59925;52.136;5.420;2023-04-15T11:07:35;4.45;;;1.60;;
72060;SDS011;59925;52.136;5.420;2023-04-15T11:10:02;2.30;;;1.38;;
72060;SDS011;59925;52.136;5.420;2023-04-15T11:12:38;2.10;;;1.50;;
72060;SDS011;59925;52.136;5.420;2023-04-15T11:15:26;2.87;;;1.60;;
72060;SDS011;59925;52.136;5.420;2023-04-15T11:18:20;2.33;;;1.10;;
72060;SDS011;59925;52.136;5.420;2023-04-15T11:20:52;2.25;;;1.33;;
72060;SDS011;59925;52.136;5.420;2023-04-15T11:23:31;2.13;;;1.33;;
72060;SDS011;59925;52.136;5.420;2023-04-15T11:26:09;3.17;;;1.60;;
72060;SDS011;59925;52.136;5.420;2023-04-15T11:28:38;2.73;;;1.40;;
72060;SDS011;59925;52.136;5.420;2023-04-15T11:31:11;3.97;;;1.50;;
72060;SDS011;59925;52.136;5.420;2023-04-15T11:33:45;2.72;;;1.77;;
72060;SDS011;59925;52.136;5.420;2023-04-15T11:36:18;2.63;;;1.60;;
72060;SDS011;59925;52.136;5.420;2023-04-15T11:38:45;2.90;;;1.52;;
72060;SDS011;59925;52.136;5.420;2023-04-15T11:41:12;2.17;;;1.30;;
72060;SDS011;59925;52.136;5.420;2023-04-15T11:44:00;2.22;;;1.27;;
72060;SDS011;59925;52.136;5.420;2023-04-15T11:46:28;2.10;;;1.20;;
72060;SDS011;59925;52.136;5.420;2023-04-15T11:48:56;2.25;;;1.30;;
72060;SDS011;59925;52.136;5.420;2023-04-15T11:51:22;2.83;;;1.73;;
72060;SDS011;59925;52.136;5.420;2023-04-15T11:53:49;2.83;;;1.50;;
72060;SDS011;59925;52.136;5.420;2023-04-15T11:56:17;3.42;;;1.63;;
72060;SDS011;59925;52.136;5.420;2023-04-15T11:58:58;2.75;;;1.50;;
72060;SDS011;59925;52.136;5.420;2023-04-15T12:01:34;2.45;;;1.20;;
72060;SDS011;59925;52.136;5.420;2023-04-15T12:04:09;2.65;;;1.10;;
72060;SDS011;59925;52.136;5.420;2023-04-15T12:06:38;1.70;;;1.10;;
72060;SDS011;59925;52.136;5.420;2023-04-15T12:11:38;1.65;;;1.00;;
72060;SDS011;59925;52.136;5.420;2023-04-15T12:14:10;2.88;;;1.25;;
72060;SDS011;59925;52.136;5.420;2023-04-15T12:16:44;3.58;;;1.45;;
72060;SDS011;59925;52.136;5.420;2023-04-15T12:19:18;1.80;;;1.00;;
72060;SDS011;59925;52.136;5.420;2023-04-15T12:21:49;4.85;;;1.00;;
72060;SDS011;59925;52.136;5.420;2023-04-15T12:24:19;1.48;;;0.70;;
72060;SDS011;59925;52.136;5.420;2023-04-15T12:26:49;1.92;;;0.80;;
72060;SDS011;59925;52.136;5.420;2023-04-15T12:29:26;1.45;;;0.90;;
72060;SDS011;59925;52.136;5.420;2023-04-15T12:31:54;3.40;;;1.10;;
72060;SDS011;59925;52.136;5.420;2023-04-15T12:34:39;2.13;;;1.15;;
72060;SDS011;59925;52.136;5.420;2023-04-15T12:37:08;2.25;;;1.10;;
72060;SDS011;59925;52.136;5.420;2023-04-15T12:39:37;1.83;;;0.95;;
72060;SDS011;59925;52.136;5.420;2023-04-15T12:42:04;4.05;;;1.23;;
72060;SDS011;59925;52.136;5.420;2023-04-15T12:44:32;4.73;;;1.27;;
72060;SDS011;59925;52.136;5.420;2023-04-15T12:47:01;1.75;;;1.02;;
72060;SDS011;59925;52.136;5.420;2023-04-15T12:49:28;2.38;;;0.95;;
72060;SDS011;59925;52.136;5.420;2023-04-15T12:51:56;2.35;;;1.00;;
72060;SDS011;59925;52.136;5.420;2023-04-15T12:54:27;2.20;;;0.98;;
72060;SDS011;59925;52.136;5.420;2023-04-15T12:56:55;3.53;;;1.30;;
72060;SDS011;59925;52.136;5.420;2023-04-15T12:59:23;2.08;;;0.98;;
72060;SDS011;59925;52.136;5.420;2023-04-15T13:01:50;1.50;;;0.73;;
72060;SDS011;59925;52.136;5.420;2023-04-15T13:04:18;3.28;;;0.70;;
72060;SDS011;59925;52.136;5.420;2023-04-15T13:06:45;4.25;;;1.13;;
72060;SDS011;59925;52.136;5.420;2023-04-15T13:09:12;3.40;;;1.37;;
72060;SDS011;59925;52.136;5.420;2023-04-15T13:11:39;2.45;;;0.80;;
72060;SDS011;59925;52.136;5.420;2023-04-15T13:14:06;2.83;;;1.13;;
72060;SDS011;59925;52.136;5.420;2023-04-15T13:16:34;2.85;;;0.98;;
72060;SDS011;59925;52.136;5.420;2023-04-15T13:19:01;3.50;;;1.63;;
72060;SDS011;59925;52.136;5.420;2023-04-15T13:21:29;3.03;;;1.00;;
72060;SDS011;59925;52.136;5.420;2023-04-15T13:23:57;1.92;;;1.20;;
72060;SDS011;59925;52.136;5.420;2023-04-15T13:26:24;2.75;;;0.80;;
72060;SDS011;59925;52.136;5.420;2023-04-15T13:28:50;2.83;;;0.85;;
72060;SDS011;59925;52.136;5.420;2023-04-15T13:31:17;3.42;;;0.80;;
72060;SDS011;59925;52.136;5.420;2023-04-15T13:33:43;5.07;;;1.00;;
72060;SDS011;59925;52.136;5.420;2023-04-15T13:36:10;5.35;;;0.95;;
72060;SDS011;59925;52.136;5.420;2023-04-15T13:38:36;1.65;;;0.85;;
72060;SDS011;59925;52.136;5.420;2023-04-15T13:41:03;5.55;;;0.98;;
72060;SDS011;59925;52.136;5.420;2023-04-15T13:43:29;2.80;;;0.80;;
72060;SDS011;59925;52.136;5.420;2023-04-15T13:45:56;4.77;;;0.93;;
72060;SDS011;59925;52.136;5.420;2023-04-15T13:48:23;2.10;;;0.90;;
72060;SDS011;59925;52.136;5.420;2023-04-15T13:50:49;1.95;;;0.80;;
72060;SDS011;59925;52.136;5.420;2023-04-15T13:53:16;39.72;;;6.68;;
72060;SDS011;59925;52.136;5.420;2023-04-15T13:55:43;52.70;;;9.20;;
72060;SDS011;59925;52.136;5.420;2023-04-15T13:58:09;3.97;;;0.93;;
72060;SDS011;59925;52.136;5.420;2023-04-15T14:00:36;1.70;;;0.60;;
72060;SDS011;59925;52.136;5.420;2023-04-15T14:03:03;1.42;;;0.50;;
72060;SDS011;59925;52.136;5.420;2023-04-15T14:05:30;1.38;;;0.40;;
72060;SDS011;59925;52.136;5.420;2023-04-15T14:07:58;2.60;;;0.73;;
72060;SDS011;59925;52.136;5.420;2023-04-15T14:10:25;2.63;;;0.50;;
72060;SDS011;59925;52.136;5.420;2023-04-15T14:12:51;1.67;;;0.60;;
72060;SDS011;59925;52.136;5.420;2023-04-15T14:15:18;2.08;;;0.63;;
72060;SDS011;59925;52.136;5.420;2023-04-15T14:17:44;2.45;;;0.50;;
72060;SDS011;59925;52.136;5.420;2023-04-15T14:20:11;2.35;;;0.60;;
72060;SDS011;59925;52.136;5.420;2023-04-15T14:22:40;3.07;;;0.90;;
72060;SDS011;59925;52.136;5.420;2023-04-15T14:25:07;3.60;;;0.68;;
72060;SDS011;59925;52.136;5.420;2023-04-15T14:27:36;4.68;;;1.10;;
72060;SDS011;59925;52.136;5.420;2023-04-15T14:30:03;3.65;;;0.70;;
72060;SDS011;59925;52.136;5.420;2023-04-15T14:32:30;3.72;;;1.13;;
72060;SDS011;59925;52.136;5.420;2023-04-15T14:34:56;2.93;;;0.90;;
72060;SDS011;59925;52.136;5.420;2023-04-15T14:37:23;3.63;;;0.77;;
72060;SDS011;59925;52.136;5.420;2023-04-15T14:39:49;3.78;;;1.02;;
72060;SDS011;59925;52.136;5.420;2023-04-15T14:42:16;6.60;;;0.93;;
72060;SDS011;59925;52.136;5.420;2023-04-15T14:44:42;5.40;;;0.90;;
72060;SDS011;59925;52.136;5.420;2023-04-15T14:47:09;4.83;;;0.93;;
72060;SDS011;59925;52.136;5.420;2023-04-15T14:49:36;3.33;;;0.50;;
72060;SDS011;59925;52.136;5.420;2023-04-15T14:52:02;2.00;;;0.52;;
72060;SDS011;59925;52.136;5.420;2023-04-15T14:54:29;3.92;;;0.70;;
72060;SDS011;59925;52.136;5.420;2023-04-15T14:56:56;2.75;;;0.63;;
72060;SDS011;59925;52.136;5.420;2023-04-15T14:59:22;3.40;;;0.57;;
72060;SDS011;59925;52.136;5.420;2023-04-15T15:01:49;5.75;;;0.80;;
72060;SDS011;59925;52.136;5.420;2023-04-15T15:04:16;3.08;;;0.40;;